sensor_id;sensor_type;location;lat;lon;timestamp;pressure;altitude;pressure_sealevel;temperature;humidity
35918;BME280;22011;59.912;30.300;2024-03-22T00:02:18;101232.75;;;8.49;62.84
35918;BME280;22011;59.912;30.300;2024-03-22T00:04:46;101217.81;;;8.48;63.52
35918;BME280;22011;59.912;30.300;2024-03-22T00:07:14;101222.00;;;8.51;64.40
35918;BME280;22011;59.912;30.300;2024-03-22T00:09:42;101219.34;;;8.41;63.66
35918;BME280;22011;59.912;30.300;2024-03-22T00:12:08;101210.13;;;8.36;64.39
35918;BME280;22011;59.912;30.300;2024-03-22T00:14:36;101210.69;;;8.30;64.37
35918;BME280;22011;59.912;30.300;2024-03-22T00:17:02;101202.16;;;8.26;64.60
35918;BME280;22011;59.912;30.300;2024-03-22T00:19:30;101200.63;;;8.24;64.64
35918;BME280;22011;59.912;30.300;2024-03-22T00:21:57;101207.47;;;8.26;64.53
35918;BME280;22011;59.912;30.300;2024-03-22T00:24:26;101203.41;;;8.32;64.45
35918;BME280;22011;59.912;30.300;2024-03-22T00:26:52;101207.47;;;8.26;64.24
35918;BME280;22011;59.912;30.300;2024-03-22T00:29:20;101206.75;;;8.24;64.40
35918;BME280;22011;59.912;30.300;2024-03-22T00:31:46;101202.44;;;8.23;64.32
35918;BME280;22011;59.912;30.300;2024-03-22T00:34:14;101203.13;;;8.25;63.42
35918;BME280;22011;59.912;30.300;2024-03-22T00:36:41;101192.09;;;8.30;64.00
35918;BME280;22011;59.912;30.300;2024-03-22T00:39:08;101191.25;;;8.29;63.63
35918;BME280;22011;59.912;30.300;2024-03-22T00:41:36;101193.50;;;8.34;64.07
35918;BME280;22011;59.912;30.300;2024-03-22T00:44:04;101190.28;;;8.30;63.97
35918;BME280;22011;59.912;30.300;2024-03-22T00:46:30;101191.81;;;8.33;64.45
35918;BME280;22011;59.912;30.300;2024-03-22T00:48:58;101186.66;;;8.31;63.70
35918;BME280;22011;59.912;30.300;2024-03-22T00:51:25;101190.84;;;8.34;63.98
35918;BME280;22011;59.912;30.300;2024-03-22T00:53:53;101182.16;;;8.41;62.64
35918;BME280;22011;59.912;30.300;2024-03-22T00:56:19;101184.13;;;8.49;62.99
35918;BME280;22011;59.912;30.300;2024-03-22T00:58:48;101176.84;;;8.51;63.54
35918;BME280;22011;59.912;30.300;2024-03-22T01:01:15;101174.19;;;8.41;63.42
35918;BME280;22011;59.912;30.300;2024-03-22T01:03:42;101168.75;;;8.43;63.97
35918;BME280;22011;59.912;30.300;2024-03-22T01:06:09;101163.44;;;8.33;63.38
35918;BME280;22011;59.912;30.300;2024-03-22T01:08:36;101160.09;;;8.31;64.52
35918;BME280;22011;59.912;30.300;2024-03-22T01:11:03;101152.28;;;8.30;64.59
35918;BME280;22011;59.912;30.300;2024-03-22T01:13:31;101153.94;;;8.31;64.64
35918;BME280;22011;59.912;30.300;2024-03-22T01:15:59;101154.66;;;8.33;65.11
35918;BME280;22011;59.912;30.300;2024-03-22T01:18:26;101145.56;;;8.26;64.72
35918;BME280;22011;59.912;30.300;2024-03-22T01:20:53;101139.84;;;8.20;64.79
35918;BME280;22011;59.912;30.300;2024-03-22T01:23:21;101129.38;;;8.09;66.02
35918;BME280;22011;59.912;30.300;2024-03-22T01:25:47;101122.53;;;8.07;66.76
35918;BME280;22011;59.912;30.300;2024-03-22T01:28:15;101122.94;;;8.02;66.10
35918;BME280;22011;59.912;30.300;2024-03-22T01:30:42;101119.44;;;8.02;66.34
35918;BME280;22011;59.912;30.300;2024-03-22T01:33:11;101116.25;;;7.98;66.92
35918;BME280;22011;59.912;30.300;2024-03-22T01:35:38;101112.03;;;7.86;66.36
35918;BME280;22011;59.912;30.300;2024-03-22T01:38:06;101107.84;;;7.83;67.12
35918;BME280;22011;59.912;30.300;2024-03-22T01:40:32;101101.00;;;7.81;66.68
35918;BME280;22011;59.912;30.300;2024-03-22T01:43:00;101105.34;;;7.82;66.25
35918;BME280;22011;59.912;30.300;2024-03-22T01:45:32;101104.94;;;7.96;67.06
35918;BME280;22011;59.912;30.300;2024-03-22T01:48:00;101104.09;;;7.86;66.48
35918;BME280;22011;59.912;30.300;2024-03-22T01:50:28;101097.94;;;7.95;66.61
35918;BME280;22011;59.912;30.300;2024-03-22T01:52:57;101099.75;;;7.95;66.67
35918;BME280;22011;59.912;30.300;2024-03-22T01:55:24;101098.09;;;7.94;66.30
35918;BME280;22011;59.912;30.300;2024-03-22T01:57:51;101091.09;;;7.93;66.80
35918;BME280;22011;59.912;30.300;2024-03-22T02:00:20;101100.88;;;7.92;66.45
35918;BME280;22011;59.912;30.300;2024-03-22T02:02:48;101086.91;;;7.90;66.83
35918;BME280;22011;59.912;30.300;2024-03-22T02:05:15;101081.59;;;7.90;66.44
35918;BME280;22011;59.912;30.300;2024-03-22T02:07:46;101084.97;;;8.02;66.73
35918;BME280;22011;59.912;30.300;2024-03-22T02:10:14;101078.81;;;8.01;66.32
35918;BME280;22011;59.912;30.300;2024-03-22T02:12:42;101081.31;;;8.03;66.04
35918;BME280;22011;59.912;30.300;2024-03-22T02:15:10;101086.50;;;8.04;65.97
35918;BME280;22011;59.912;30.300;2024-03-22T02:17:36;101080.50;;;8.02;65.72
35918;BME280;22011;59.912;30.300;2024-03-22T02:20:05;101088.03;;;7.97;65.87
35918;BME280;22011;59.912;30.300;2024-03-22T02:22:32;101081.19;;;7.95;66.50
35918;BME280;22011;59.912;30.300;2024-03-22T02:25:01;101074.91;;;7.96;66.67
35918;BME280;22011;59.912;30.300;2024-03-22T02:27:28;101076.31;;;7.90;66.43
35918;BME280;22011;59.912;30.300;2024-03-22T02:29:55;101073.50;;;7.92;66.63
35918;BME280;22011;59.912;30.300;2024-03-22T02:32:22;101060.09;;;7.93;67.00
35918;BME280;22011;59.912;30.300;2024-03-22T02:34:49;101067.38;;;7.91;66.75
35918;BME280;22011;59.912;30.300;2024-03-22T02:37:16;101063.03;;;7.90;66.89
35918;BME280;22011;59.912;30.300;2024-03-22T02:39:44;101066.53;;;7.91;67.13
35918;BME280;22011;59.912;30.300;2024-03-22T02:42:12;101062.63;;;7.95;67.01
35918;BME280;22011;59.912;30.300;2024-03-22T02:44:40;101059.53;;;7.90;66.53
35918;BME280;22011;59.912;30.300;2024-03-22T02:47:09;101054.50;;;7.96;66.03
35918;BME280;22011;59.912;30.300;2024-03-22T02:49:38;101055.22;;;7.98;66.30
35918;BME280;22011;59.912;30.300;2024-03-22T02:52:05;101052.97;;;7.94;66.48
35918;BME280;22011;59.912;30.300;2024-03-22T02:54:33;101047.13;;;7.90;66.80
35918;BME280;22011;59.912;30.300;2024-03-22T02:56:59;101043.78;;;7.88;66.71
35918;BME280;22011;59.912;30.300;2024-03-22T02:59:29;101043.50;;;7.91;67.36
35918;BME280;22011;59.912;30.300;2024-03-22T03:01:56;101040.69;;;7.83;66.62
35918;BME280;22011;59.912;30.300;2024-03-22T03:04:23;101043.34;;;7.83;66.59
35918;BME280;22011;59.912;30.300;2024-03-22T03:06:50;101039.03;;;7.82;66.57
35918;BME280;22011;59.912;30.300;2024-03-22T03:09:18;101036.22;;;7.83;67.22
35918;BME280;22011;59.912;30.300;2024-03-22T03:11:44;101035.25;;;7.84;66.33
35918;BME280;22011;59.912;30.300;2024-03-22T03:14:12;101036.94;;;7.85;66.71
35918;BME280;22011;59.912;30.300;2024-03-22T03:16:40;101035.81;;;7.88;66.48
35918;BME280;22011;59.912;30.300;2024-03-22T03:19:07;101029.66;;;7.87;66.25
35918;BME280;22011;59.912;30.300;2024-03-22T03:21:34;101032.47;;;7.86;66.67
35918;BME280;22011;59.912;30.300;2024-03-22T03:24:02;101031.63;;;7.85;66.91
35918;BME280;22011;59.912;30.300;2024-03-22T03:26:28;101022.41;;;7.90;66.38
35918;BME280;22011;59.912;30.300;2024-03-22T03:28:56;101025.91;;;7.90;66.59
35918;BME280;22011;59.912;30.300;2024-03-22T03:31:22;101021.56;;;7.89;66.23
35918;BME280;22011;59.912;30.300;2024-03-22T03:33:51;101021.28;;;7.92;66.77
35918;BME280;22011;59.912;30.300;2024-03-22T03:36:18;101012.91;;;7.87;66.39
35918;BME280;22011;59.912;30.300;2024-03-22T03:38:46;101008.72;;;7.94;65.68
35918;BME280;22011;59.912;30.300;2024-03-22T03:41:12;101002.84;;;8.00;65.55
35918;BME280;22011;59.912;30.300;2024-03-22T03:43:40;100998.91;;;8.04;66.18
35918;BME280;22011;59.912;30.300;2024-03-22T03:46:06;100984.97;;;8.02;66.02
35918;BME280;22011;59.912;30.300;2024-03-22T03:48:34;100988.59;;;8.01;66.56
35918;BME280;22011;59.912;30.300;2024-03-22T03:51:02;100990.25;;;8.02;67.26
35918;BME280;22011;59.912;30.300;2024-03-22T03:53:30;100989.44;;;7.92;66.96
35918;BME280;22011;59.912;30.300;2024-03-22T03:55:57;100982.31;;;7.93;66.54
35918;BME280;22011;59.912;30.300;2024-03-22T03:58:24;100974.91;;;7.96;66.80
35918;BME280;22011;59.912;30.300;2024-03-22T04:00:51;100983.03;;;7.95;66.39
35918;BME280;22011;59.912;30.300;2024-03-22T04:03:18;100982.47;;;7.91;66.58
35918;BME280;22011;59.912;30.300;2024-03-22T04:05:45;100977.16;;;7.91;66.78
35918;BME280;22011;59.912;30.300;2024-03-22T04:08:14;100988.19;;;7.96;67.14
35918;BME280;22011;59.912;30.300;2024-03-22T04:10:41;100978.00;;;7.92;67.08
35918;BME280;22011;59.912;30.300;2024-03-22T04:13:08;100969.47;;;7.98;67.25
35918;BME280;22011;59.912;30.300;2024-03-22T04:15:35;100962.50;;;7.97;67.11
35918;BME280;22011;59.912;30.300;2024-03-22T04:18:03;100962.78;;;7.94;67.08
35918;BME280;22011;59.912;30.300;2024-03-22T04:20:29;100958.44;;;7.93;66.52
35918;BME280;22011;59.912;30.300;2024-03-22T04:22:57;100954.78;;;8.03;67.14
35918;BME280;22011;59.912;30.300;2024-03-22T04:25:25;100950.31;;;8.04;67.03
35918;BME280;22011;59.912;30.300;2024-03-22T04:27:53;100948.66;;;7.93;67.24
35918;BME280;22011;59.912;30.300;2024-03-22T04:30:19;100944.63;;;7.89;67.52
35918;BME280;22011;59.912;30.300;2024-03-22T04:32:47;100940.31;;;7.88;67.44
35918;BME280;22011;59.912;30.300;2024-03-22T04:35:14;100939.75;;;7.84;67.55
35918;BME280;22011;59.912;30.300;2024-03-22T04:37:41;100936.28;;;7.84;67.52
35918;BME280;22011;59.912;30.300;2024-03-22T04:40:10;100944.91;;;7.86;67.57
35918;BME280;22011;59.912;30.300;2024-03-22T04:42:39;100944.50;;;7.91;67.95
35918;BME280;22011;59.912;30.300;2024-03-22T04:45:07;100944.78;;;7.87;67.80
35918;BME280;22011;59.912;30.300;2024-03-22T04:47:34;100943.25;;;7.85;66.97
35918;BME280;22011;59.912;30.300;2024-03-22T04:50:04;100941.00;;;7.90;67.19
35918;BME280;22011;59.912;30.300;2024-03-22T04:52:31;100935.28;;;7.85;66.98
35918;BME280;22011;59.912;30.300;2024-03-22T04:54:59;100928.16;;;7.85;67.15
35918;BME280;22011;59.912;30.300;2024-03-22T04:57:28;100934.84;;;7.90;67.08
35918;BME280;22011;59.912;30.300;2024-03-22T04:59:57;100925.34;;;7.97;67.20
35918;BME280;22011;59.912;30.300;2024-03-22T05:02:23;100912.41;;;7.84;67.61
35918;BME280;22011;59.912;30.300;2024-03-22T05:04:51;100908.34;;;7.80;67.80
35918;BME280;22011;59.912;30.300;2024-03-22T05:07:17;100898.72;;;7.79;67.62
35918;BME280;22011;59.912;30.300;2024-03-22T05:09:45;100894.69;;;7.75;67.41
35918;BME280;22011;59.912;30.300;2024-03-22T05:12:11;100901.81;;;7.74;67.68
35918;BME280;22011;59.912;30.300;2024-03-22T05:14:39;100895.94;;;7.71;67.29
35918;BME280;22011;59.912;30.300;2024-03-22T05:17:07;100896.34;;;7.76;67.83
35918;BME280;22011;59.912;30.300;2024-03-22T05:19:35;100888.69;;;7.73;67.54
35918;BME280;22011;59.912;30.300;2024-03-22T05:22:01;100895.94;;;7.71;67.01
35918;BME280;22011;59.912;30.300;2024-03-22T05:24:29;100892.47;;;7.70;67.71
35918;BME280;22011;59.912;30.300;2024-03-22T05:26:56;100885.06;;;7.64;67.82
35918;BME280;22011;59.912;30.300;2024-03-22T05:29:23;100890.25;;;7.66;67.42
35918;BME280;22011;59.912;30.300;2024-03-22T05:31:50;100889.66;;;7.72;67.38
35918;BME280;22011;59.912;30.300;2024-03-22T05:34:20;100883.66;;;7.79;67.26
35918;BME280;22011;59.912;30.300;2024-03-22T05:36:46;100875.84;;;7.78;66.77
35918;BME280;22011;59.912;30.300;2024-03-22T05:39:14;100872.06;;;7.80;66.49
35918;BME280;22011;59.912;30.300;2024-03-22T05:41:41;100872.06;;;7.80;66.95
35918;BME280;22011;59.912;30.300;2024-03-22T05:44:09;100870.78;;;7.84;66.88
35918;BME280;22011;59.912;30.300;2024-03-22T05:46:35;100864.34;;;7.87;66.73
35918;BME280;22011;59.912;30.300;2024-03-22T05:49:03;100867.44;;;7.82;66.53
35918;BME280;22011;59.912;30.300;2024-03-22T05:51:31;100859.22;;;7.76;67.04
35918;BME280;22011;59.912;30.300;2024-03-22T05:53:58;100858.00;;;7.70;67.25
35918;BME280;22011;59.912;30.300;2024-03-22T05:56:25;100861.75;;;7.68;67.62
35918;BME280;22011;59.912;30.300;2024-03-22T05:58:53;100859.13;;;7.58;67.55
35918;BME280;22011;59.912;30.300;2024-03-22T06:01:19;100859.28;;;7.57;67.26
35918;BME280;22011;59.912;30.300;2024-03-22T06:03:47;100854.66;;;7.59;67.61
35918;BME280;22011;59.912;30.300;2024-03-22T06:06:14;100841.81;;;7.64;67.85
35918;BME280;22011;59.912;30.300;2024-03-22T06:08:43;100836.19;;;7.76;67.59
35918;BME280;22011;59.912;30.300;2024-03-22T06:11:11;100840.66;;;7.76;67.51
35918;BME280;22011;59.912;30.300;2024-03-22T06:13:39;100839.69;;;7.77;67.55
35918;BME280;22011;59.912;30.300;2024-03-22T06:16:06;100825.03;;;7.73;68.09
35918;BME280;22011;59.912;30.300;2024-03-22T06:18:33;100828.41;;;7.65;67.21
35918;BME280;22011;59.912;30.300;2024-03-22T06:21:00;100828.41;;;7.65;67.76
35918;BME280;22011;59.912;30.300;2024-03-22T06:23:29;100831.13;;;7.83;68.54
35918;BME280;22011;59.912;30.300;2024-03-22T06:25:57;100832.53;;;7.87;67.65
35918;BME280;22011;59.912;30.300;2024-03-22T06:28:28;100832.22;;;7.90;67.99
35918;BME280;22011;59.912;30.300;2024-03-22T06:30:54;100835.31;;;7.85;67.88
35918;BME280;22011;59.912;30.300;2024-03-22T06:33:22;100830.56;;;7.89;68.12
35918;BME280;22011;59.912;30.300;2024-03-22T06:35:49;100828.31;;;7.94;67.84
35918;BME280;22011;59.912;30.300;2024-03-22T06:38:16;100830.25;;;7.92;67.59
35918;BME280;22011;59.912;30.300;2024-03-22T06:40:43;100836.94;;;7.96;68.25
35918;BME280;22011;59.912;30.300;2024-03-22T06:43:12;100832.72;;;8.03;67.91
35918;BME280;22011;59.912;30.300;2024-03-22T06:45:38;100822.94;;;8.04;68.16
35918;BME280;22011;59.912;30.300;2024-03-22T06:48:06;100822.94;;;8.04;67.71
35918;BME280;22011;59.912;30.300;2024-03-22T06:50:32;100830.38;;;8.00;68.10
35918;BME280;22011;59.912;30.300;2024-03-22T06:53:00;100829.97;;;7.95;67.59
35918;BME280;22011;59.912;30.300;2024-03-22T06:55:26;100822.16;;;7.94;68.35
35918;BME280;22011;59.912;30.300;2024-03-22T06:57:54;100825.25;;;7.89;68.05
35918;BME280;22011;59.912;30.300;2024-03-22T07:00:22;100816.16;;;7.92;68.57
35918;BME280;22011;59.912;30.300;2024-03-22T07:02:50;100819.56;;;7.84;68.72
35918;BME280;22011;59.912;30.300;2024-03-22T07:05:16;100823.47;;;7.80;68.66
35918;BME280;22011;59.912;30.300;2024-03-22T07:07:44;100815.22;;;7.83;68.58
35918;BME280;22011;59.912;30.300;2024-03-22T07:10:10;100815.50;;;7.80;68.75
35918;BME280;22011;59.912;30.300;2024-03-22T07:12:38;100810.22;;;7.80;68.81
35918;BME280;22011;59.912;30.300;2024-03-22T07:15:06;100807.56;;;7.80;69.26
35918;BME280;22011;59.912;30.300;2024-03-22T07:17:35;100800.00;;;7.85;69.10
35918;BME280;22011;59.912;30.300;2024-03-22T07:20:02;100796.41;;;7.76;68.55
35918;BME280;22011;59.912;30.300;2024-03-22T07:22:30;100790.25;;;7.76;68.73
35918;BME280;22011;59.912;30.300;2024-03-22T07:24:57;100785.94;;;7.75;68.67
35918;BME280;22011;59.912;30.300;2024-03-22T07:27:25;100782.31;;;7.76;68.73
35918;BME280;22011;59.912;30.300;2024-03-22T07:29:55;100775.47;;;7.73;69.09
35918;BME280;22011;59.912;30.300;2024-03-22T07:32:23;100777.28;;;7.73;69.40
35918;BME280;22011;59.912;30.300;2024-03-22T07:34:51;100780.63;;;7.75;69.37
35918;BME280;22011;59.912;30.300;2024-03-22T07:37:18;100766.69;;;7.73;69.16
35918;BME280;22011;59.912;30.300;2024-03-22T07:39:45;100763.06;;;7.74;69.05
35918;BME280;22011;59.912;30.300;2024-03-22T07:42:12;100758.34;;;7.68;68.76
35918;BME280;22011;59.912;30.300;2024-03-22T07:44:39;100749.97;;;7.63;68.93
35918;BME280;22011;59.912;30.300;2024-03-22T07:47:07;100754.31;;;7.64;69.14
35918;BME280;22011;59.912;30.300;2024-03-22T07:49:33;100745.75;;;7.70;68.82
35918;BME280;22011;59.912;30.300;2024-03-22T07:52:04;100734.72;;;7.74;69.33
35918;BME280;22011;59.912;30.300;2024-03-22T07:54:31;100736.13;;;7.69;69.53
35918;BME280;22011;59.912;30.300;2024-03-22T07:56:59;100736.00;;;7.70;69.11
35918;BME280;22011;59.912;30.300;2024-03-22T07:59:25;100731.81;;;7.68;68.73
35918;BME280;22011;59.912;30.300;2024-03-22T08:01:53;100740.31;;;7.71;69.46
35918;BME280;22011;59.912;30.300;2024-03-22T08:04:19;100735.84;;;7.72;69.48
35918;BME280;22011;59.912;30.300;2024-03-22T08:06:47;100723.41;;;7.72;69.36
35918;BME280;22011;59.912;30.300;2024-03-22T08:09:15;100719.50;;;7.76;69.02
35918;BME280;22011;59.912;30.300;2024-03-22T08:11:44;100722.97;;;7.77;68.43
35918;BME280;22011;59.912;30.300;2024-03-22T08:14:10;100716.97;;;7.75;69.23
35918;BME280;22011;59.912;30.300;2024-03-22T08:16:38;100709.72;;;7.77;68.80
35918;BME280;22011;59.912;30.300;2024-03-22T08:19:05;100705.69;;;7.73;68.71
35918;BME280;22011;59.912;30.300;2024-03-22T08:21:32;100705.69;;;7.73;69.12
35918;BME280;22011;59.912;30.300;2024-03-22T08:23:59;100707.94;;;7.68;68.83
35918;BME280;22011;59.912;30.300;2024-03-22T08:26:28;100705.69;;;7.73;68.85
35918;BME280;22011;59.912;30.300;2024-03-22T08:28:54;100708.94;;;7.67;68.75
35918;BME280;22011;59.912;30.300;2024-03-22T08:31:22;100691.34;;;7.66;68.99
35918;BME280;22011;59.912;30.300;2024-03-22T08:33:51;100700.25;;;7.74;68.90
35918;BME280;22011;59.912;30.300;2024-03-22T08:36:19;100694.63;;;7.77;68.81
35918;BME280;22011;59.912;30.300;2024-03-22T08:38:45;100684.47;;;7.73;68.89
35918;BME280;22011;59.912;30.300;2024-03-22T08:41:13;100682.94;;;7.70;69.02
35918;BME280;22011;59.912;30.300;2024-03-22T08:43:41;100684.09;;;7.68;69.46
35918;BME280;22011;59.912;30.300;2024-03-22T08:46:08;100673.91;;;7.63;69.77
35918;BME280;22011;59.912;30.300;2024-03-22T08:48:35;100675.84;;;7.71;69.57
35918;BME280;22011;59.912;30.300;2024-03-22T08:51:03;100676.75;;;7.79;69.50
35918;BME280;22011;59.912;30.300;2024-03-22T08:53:29;100672.00;;;7.83;69.32
35918;BME280;22011;59.912;30.300;2024-03-22T08:55:57;100677.88;;;7.77;69.23
35918;BME280;22011;59.912;30.300;2024-03-22T08:58:24;100662.56;;;7.71;69.69
35918;BME280;22011;59.912;30.300;2024-03-22T09:00:53;100668.41;;;7.74;70.13
35918;BME280;22011;59.912;30.300;2024-03-22T09:03:20;100664.25;;;7.72;69.91
35918;BME280;22011;59.912;30.300;2024-03-22T09:05:52;100655.69;;;7.78;70.05
35918;BME280;22011;59.912;30.300;2024-03-22T09:08:19;100665.75;;;7.74;69.67
35918;BME280;22011;59.912;30.300;2024-03-22T09:10:47;100659.31;;;7.77;69.15
35918;BME280;22011;59.912;30.300;2024-03-22T09:13:14;100657.13;;;7.72;69.63
35918;BME280;22011;59.912;30.300;2024-03-22T09:15:42;100653.63;;;7.72;69.49
35918;BME280;22011;59.912;30.300;2024-03-22T09:18:09;100649.09;;;7.82;69.42
35918;BME280;22011;59.912;30.300;2024-03-22T09:20:37;100654.94;;;7.85;69.63
35918;BME280;22011;59.912;30.300;2024-03-22T09:23:04;100649.34;;;7.88;69.20
35918;BME280;22011;59.912;30.300;2024-03-22T09:25:31;100638.41;;;7.92;69.03
35918;BME280;22011;59.912;30.300;2024-03-22T09:27:58;100633.66;;;7.95;69.53
35918;BME280;22011;59.912;30.300;2024-03-22T09:30:26;100625.84;;;7.94;69.18
35918;BME280;22011;59.912;30.300;2024-03-22T09:32:52;100627.81;;;7.92;69.05
35918;BME280;22011;59.912;30.300;2024-03-22T09:35:21;100625.38;;;7.98;70.38
35918;BME280;22011;59.912;30.300;2024-03-22T09:37:48;100626.06;;;8.00;69.65
35918;BME280;22011;59.912;30.300;2024-03-22T09:40:16;100617.13;;;8.01;69.06
35918;BME280;22011;59.912;30.300;2024-03-22T09:42:43;100620.47;;;8.03;69.15
35918;BME280;22011;59.912;30.300;2024-03-22T09:45:12;100606.84;;;8.42;70.37
35918;BME280;22011;59.912;30.300;2024-03-22T09:47:39;100606.72;;;8.08;68.41
35918;BME280;22011;59.912;30.300;2024-03-22T09:50:07;100609.25;;;8.09;68.65
35918;BME280;22011;59.912;30.300;2024-03-22T09:52:38;100601.66;;;8.14;69.76
35918;BME280;22011;59.912;30.300;2024-03-22T09:55:06;100605.16;;;7.97;68.71
35918;BME280;22011;59.912;30.300;2024-03-22T09:57:35;100592.88;;;7.96;69.61
35918;BME280;22011;59.912;30.300;2024-03-22T10:00:07;100597.88;;;7.99;69.98
35918;BME280;22011;59.912;30.300;2024-03-22T10:02:38;100587.41;;;7.98;69.86
35918;BME280;22011;59.912;30.300;2024-03-22T10:05:06;100591.56;;;8.00;69.62
35918;BME280;22011;59.912;30.300;2024-03-22T10:07:34;100580.97;;;8.00;69.51
35918;BME280;22011;59.912;30.300;2024-03-22T10:10:04;100584.75;;;7.98;69.18
35918;BME280;22011;59.912;30.300;2024-03-22T10:12:31;100579.75;;;7.95;69.18
35918;BME280;22011;59.912;30.300;2024-03-22T10:14:58;100568.25;;;7.86;69.22
35918;BME280;22011;59.912;30.300;2024-03-22T10:17:26;100572.94;;;7.92;69.42
35918;BME280;22011;59.912;30.300;2024-03-22T10:19:54;100575.75;;;7.91;69.60
35918;BME280;22011;59.912;30.300;2024-03-22T10:22:21;100571.88;;;7.85;70.03
35918;BME280;22011;59.912;30.300;2024-03-22T10:24:51;100567.78;;;7.91;70.12
35918;BME280;22011;59.912;30.300;2024-03-22T10:27:20;100572.31;;;7.98;70.58
35918;BME280;22011;59.912;30.300;2024-03-22T10:29:48;100572.47;;;7.97;70.47
35918;BME280;22011;59.912;30.300;2024-03-22T10:32:16;100559.06;;;7.98;70.86
35918;BME280;22011;59.912;30.300;2024-03-22T10:34:45;100567.69;;;8.00;70.48
35918;BME280;22011;59.912;30.300;2024-03-22T10:37:14;100562.53;;;7.99;71.67
35918;BME280;22011;59.912;30.300;2024-03-22T10:39:43;100563.63;;;7.88;71.08
35918;BME280;22011;59.912;30.300;2024-03-22T10:42:10;100560.44;;;7.84;71.55
35918;BME280;22011;59.912;30.300;2024-03-22T10:44:39;100559.59;;;7.84;71.87
35918;BME280;22011;59.912;30.300;2024-03-22T10:47:09;100553.00;;;7.88;72.61
35918;BME280;22011;59.912;30.300;2024-03-22T10:49:38;100570.38;;;7.82;71.85
35918;BME280;22011;59.912;30.300;2024-03-22T10:52:07;100562.56;;;7.81;72.27
35918;BME280;22011;59.912;30.300;2024-03-22T10:54:39;100553.09;;;7.78;72.50
35918;BME280;22011;59.912;30.300;2024-03-22T10:57:12;100551.94;;;7.81;73.34
35918;BME280;22011;59.912;30.300;2024-03-22T10:59:42;100545.28;;;7.77;73.02
35918;BME280;22011;59.912;30.300;2024-03-22T11:02:11;100539.81;;;7.78;72.92
35918;BME280;22011;59.912;30.300;2024-03-22T11:04:38;100548.09;;;7.75;72.47
35918;BME280;22011;59.912;30.300;2024-03-22T11:07:05;100537.00;;;7.80;72.27
35918;BME280;22011;59.912;30.300;2024-03-22T11:09:33;100540.66;;;7.79;71.92
35918;BME280;22011;59.912;30.300;2024-03-22T11:12:00;100541.34;;;7.81;72.39
35918;BME280;22011;59.912;30.300;2024-03-22T11:14:27;100535.34;;;7.79;72.04
35918;BME280;22011;59.912;30.300;2024-03-22T11:16:56;100533.06;;;7.84;72.20
35918;BME280;22011;59.912;30.300;2024-03-22T11:19:23;100525.13;;;7.84;71.62
35918;BME280;22011;59.912;30.300;2024-03-22T11:21:50;100526.84;;;7.93;71.81
35918;BME280;22011;59.912;30.300;2024-03-22T11:24:18;100520.09;;;7.99;71.38
35918;BME280;22011;59.912;30.300;2024-03-22T11:26:44;100519.78;;;8.02;71.42
35918;BME280;22011;59.912;30.300;2024-03-22T11:29:12;100513.81;;;8.00;71.53
35918;BME280;22011;59.912;30.300;2024-03-22T11:31:40;100508.34;;;8.01;71.06
35918;BME280;22011;59.912;30.300;2024-03-22T11:34:09;100509.22;;;8.10;71.08
35918;BME280;22011;59.912;30.300;2024-03-22T11:36:38;100507.03;;;8.05;70.28
35918;BME280;22011;59.912;30.300;2024-03-22T11:39:05;100502.03;;;8.02;70.38
35918;BME280;22011;59.912;30.300;2024-03-22T11:41:32;100500.06;;;8.04;70.57
35918;BME280;22011;59.912;30.300;2024-03-22T11:44:01;100495.28;;;8.08;70.53
35918;BME280;22011;59.912;30.300;2024-03-22T11:46:28;100488.53;;;8.13;70.12
35918;BME280;22011;59.912;30.300;2024-03-22T11:48:56;100477.44;;;8.18;70.22
35918;BME280;22011;59.912;30.300;2024-03-22T11:51:25;100472.19;;;8.26;69.77
35918;BME280;22011;59.912;30.300;2024-03-22T11:53:53;100475.66;;;8.27;69.39
35918;BME280;22011;59.912;30.300;2024-03-22T11:56:22;100464.75;;;8.30;68.99
35918;BME280;22011;59.912;30.300;2024-03-22T11:58:57;100462.16;;;8.46;69.46
35918;BME280;22011;59.912;30.300;2024-03-22T12:01:24;100460.47;;;8.37;68.37
35918;BME280;22011;59.912;30.300;2024-03-22T12:03:53;100456.16;;;8.36;68.58
35918;BME280;22011;59.912;30.300;2024-03-22T12:06:20;100453.50;;;8.36;68.68
35918;BME280;22011;59.912;30.300;2024-03-22T12:08:49;100452.84;;;8.42;68.45
35918;BME280;22011;59.912;30.300;2024-03-22T12:11:17;100448.66;;;8.31;68.32
35918;BME280;22011;59.912;30.300;2024-03-22T12:13:46;100441.16;;;8.27;68.37
35918;BME280;22011;59.912;30.300;2024-03-22T12:16:13;100442.00;;;8.27;68.23
35918;BME280;22011;59.912;30.300;2024-03-22T12:18:40;100440.03;;;8.29;68.19
35918;BME280;22011;59.912;30.300;2024-03-22T12:21:07;100430.56;;;8.27;68.79
35918;BME280;22011;59.912;30.300;2024-03-22T12:23:35;100421.75;;;8.26;68.54
35918;BME280;22011;59.912;30.300;2024-03-22T12:26:03;100422.94;;;8.32;69.80
35918;BME280;22011;59.912;30.300;2024-03-22T12:28:31;100415.13;;;8.30;69.00
35918;BME280;22011;59.912;30.300;2024-03-22T12:30:57;100412.50;;;8.30;68.40
35918;BME280;22011;59.912;30.300;2024-03-22T12:33:25;100412.31;;;8.32;68.33
35918;BME280;22011;59.912;30.300;2024-03-22T12:35:51;100414.31;;;8.30;67.98
35918;BME280;22011;59.912;30.300;2024-03-22T12:38:19;100398.38;;;8.30;68.28
35918;BME280;22011;59.912;30.300;2024-03-22T12:40:46;100400.03;;;8.31;68.45
35918;BME280;22011;59.912;30.300;2024-03-22T12:43:16;100407.81;;;8.24;69.14
35918;BME280;22011;59.912;30.300;2024-03-22T12:45:43;100398.69;;;8.27;69.13
35918;BME280;22011;59.912;30.300;2024-03-22T12:48:10;100390.75;;;8.27;68.86
35918;BME280;22011;59.912;30.300;2024-03-22T12:50:37;100389.34;;;8.14;68.80
35918;BME280;22011;59.912;30.300;2024-03-22T12:53:05;100387.56;;;8.23;68.56